UKKK/IEV METAR and TAF weather

Enter ICAO airport designator
Station Type Date Time Source
UKKK METAR 2019/12/09 13:30 UTC NOAA

UKKK 091330Z 21002MPS 180V250 CAVOK 05/00 Q1009 R26/190060 NOSIG


Station Type Date Time Source
UKKK Decoded METAR 2019/12/09 13:30 UTC NOAA

Kyiv, Ukraine (UKKK) 50-24N 030-34E 167M
Dec 09, 2019 - 08:30 AM EST / 2019.12.09 1330 UTC
Wind: from the SSW (210 degrees) at 4 MPH (4 KT) (direction variable):0
Visibility: greater than 7 mile(s):0
Temperature: 41 F (5 C)
Dew Point: 32 F (0 C)
Relative Humidity: 70%
Pressure (altimeter): 29.80 in. Hg (1009 hPa)
ob: UKKK 091330Z 21002MPS 180V250 CAVOK 05/00 Q1009 R26/190060 NOSIG
cycle: 13

Station Type Date Time Source
UKKK TAF 2019/12/09 12:12 UTC NOAA

TAF TAF UKKK 091102Z 0912/1012 21005G10MPS 9999 SCT030 TX06/0912Z TN00/1003Z
BECMG 0916/0918 19003G08MPS
TEMPO 0918/1006 2000 BR BKN007
BECMG 1006/1008 20005G10MPS

Example: see airport list